sensor_id;sensor_type;location;lat;lon;timestamp;temperature;humidity
2300;DHT22;1158;48.750;9.078;2022-08-04T00:01:23;17.70;99.90
2300;DHT22;1158;48.750;9.078;2022-08-04T00:03:56;17.70;99.90
2300;DHT22;1158;48.750;9.078;2022-08-04T00:06:35;17.70;99.90
2300;DHT22;1158;48.750;9.078;2022-08-04T00:09:09;17.60;99.90
2300;DHT22;1158;48.750;9.078;2022-08-04T00:11:44;17.50;99.90
2300;DHT22;1158;48.750;9.078;2022-08-04T00:14:15;17.50;99.90
2300;DHT22;1158;48.750;9.078;2022-08-04T00:16:42;17.50;99.90
2300;DHT22;1158;48.750;9.078;2022-08-04T00:19:16;17.40;99.90
2300;DHT22;1158;48.750;9.078;2022-08-04T00:21:47;17.40;99.90
2300;DHT22;1158;48.750;9.078;2022-08-04T00:24:17;17.40;99.90
2300;DHT22;1158;48.750;9.078;2022-08-04T00:26:46;17.40;99.90
2300;DHT22;1158;48.750;9.078;2022-08-04T00:29:13;17.30;99.90
2300;DHT22;1158;48.750;9.078;2022-08-04T00:31:41;17.30;99.90
2300;DHT22;1158;48.750;9.078;2022-08-04T00:34:10;17.30;99.90
2300;DHT22;1158;48.750;9.078;2022-08-04T00:36:37;17.20;99.90
2300;DHT22;1158;48.750;9.078;2022-08-04T00:39:06;17.20;99.90
2300;DHT22;1158;48.750;9.078;2022-08-04T00:41:42;17.10;99.90
2300;DHT22;1158;48.750;9.078;2022-08-04T00:44:26;17.10;99.90
2300;DHT22;1158;48.750;9.078;2022-08-04T00:47:03;17.10;99.90
2300;DHT22;1158;48.750;9.078;2022-08-04T00:50:04;17.10;99.90
2300;DHT22;1158;48.750;9.078;2022-08-04T00:52:48;17.00;99.90
2300;DHT22;1158;48.750;9.078;2022-08-04T00:55:35;17.00;99.90
2300;DHT22;1158;48.750;9.078;2022-08-04T00:58:34;17.00;99.90
2300;DHT22;1158;48.750;9.078;2022-08-04T01:01:07;16.90;99.90
2300;DHT22;1158;48.750;9.078;2022-08-04T01:03:48;16.90;99.90
2300;DHT22;1158;48.750;9.078;2022-08-04T01:06:23;16.80;99.90
2300;DHT22;1158;48.750;9.078;2022-08-04T01:09:02;16.80;99.90
2300;DHT22;1158;48.750;9.078;2022-08-04T01:11:37;16.80;99.90
2300;DHT22;1158;48.750;9.078;2022-08-04T01:14:17;16.80;99.90
2300;DHT22;1158;48.750;9.078;2022-08-04T01:16:51;16.80;99.90
2300;DHT22;1158;48.750;9.078;2022-08-04T01:19:40;16.80;99.90
2300;DHT22;1158;48.750;9.078;2022-08-04T01:22:17;16.80;99.90
2300;DHT22;1158;48.750;9.078;2022-08-04T01:25:02;16.70;99.90
2300;DHT22;1158;48.750;9.078;2022-08-04T01:27:48;16.60;99.90
2300;DHT22;1158;48.750;9.078;2022-08-04T01:30:25;16.70;99.90
2300;DHT22;1158;48.750;9.078;2022-08-04T01:32:56;16.60;99.90
2300;DHT22;1158;48.750;9.078;2022-08-04T01:35:28;16.60;99.90
2300;DHT22;1158;48.750;9.078;2022-08-04T01:38:00;16.60;99.90
2300;DHT22;1158;48.750;9.078;2022-08-04T01:40:27;16.50;99.90
2300;DHT22;1158;48.750;9.078;2022-08-04T01:42:54;16.50;99.90
2300;DHT22;1158;48.750;9.078;2022-08-04T01:45:24;16.50;99.90
2300;DHT22;1158;48.750;9.078;2022-08-04T01:47:54;16.50;99.90
2300;DHT22;1158;48.750;9.078;2022-08-04T01:50:22;16.40;99.90
2300;DHT22;1158;48.750;9.078;2022-08-04T01:52:53;16.40;99.90
2300;DHT22;1158;48.750;9.078;2022-08-04T01:55:20;16.50;99.90
2300;DHT22;1158;48.750;9.078;2022-08-04T01:57:50;16.40;99.90
2300;DHT22;1158;48.750;9.078;2022-08-04T02:00:19;16.40;99.90
2300;DHT22;1158;48.750;9.078;2022-08-04T02:02:48;16.40;99.90
2300;DHT22;1158;48.750;9.078;2022-08-04T02:05:17;16.30;99.90
2300;DHT22;1158;48.750;9.078;2022-08-04T02:07:59;16.30;99.90
2300;DHT22;1158;48.750;9.078;2022-08-04T02:10:29;16.30;99.90
2300;DHT22;1158;48.750;9.078;2022-08-04T02:13:05;16.20;99.90
2300;DHT22;1158;48.750;9.078;2022-08-04T02:15:42;16.20;99.90
2300;DHT22;1158;48.750;9.078;2022-08-04T02:18:20;16.20;99.90
2300;DHT22;1158;48.750;9.078;2022-08-04T02:20:51;16.20;99.90
2300;DHT22;1158;48.750;9.078;2022-08-04T02:23:29;16.20;99.90
2300;DHT22;1158;48.750;9.078;2022-08-04T02:25:58;16.10;99.90
2300;DHT22;1158;48.750;9.078;2022-08-04T02:28:32;16.10;99.90
2300;DHT22;1158;48.750;9.078;2022-08-04T02:31:07;16.00;99.90
2300;DHT22;1158;48.750;9.078;2022-08-04T02:33:42;16.00;99.90
2300;DHT22;1158;48.750;9.078;2022-08-04T02:36:13;16.00;99.90
2300;DHT22;1158;48.750;9.078;2022-08-04T02:38:58;16.00;99.90
2300;DHT22;1158;48.750;9.078;2022-08-04T02:41:27;16.00;99.90
2300;DHT22;1158;48.750;9.078;2022-08-04T02:43:55;15.90;99.90
2300;DHT22;1158;48.750;9.078;2022-08-04T02:46:23;15.90;99.90
2300;DHT22;1158;48.750;9.078;2022-08-04T02:48:53;15.90;99.90
2300;DHT22;1158;48.750;9.078;2022-08-04T02:51:22;15.90;99.90
2300;DHT22;1158;48.750;9.078;2022-08-04T02:53:52;15.80;99.90
2300;DHT22;1158;48.750;9.078;2022-08-04T02:56:21;15.80;99.90
2300;DHT22;1158;48.750;9.078;2022-08-04T02:58:52;15.80;99.90
2300;DHT22;1158;48.750;9.078;2022-08-04T03:01:20;15.80;99.90
2300;DHT22;1158;48.750;9.078;2022-08-04T03:03:55;15.70;99.90
2300;DHT22;1158;48.750;9.078;2022-08-04T03:13:26;15.60;99.90
2300;DHT22;1158;48.750;9.078;2022-08-04T03:16:02;15.50;99.90
2300;DHT22;1158;48.750;9.078;2022-08-04T03:25:14;15.50;99.90
2300;DHT22;1158;48.750;9.078;2022-08-04T03:30:56;15.50;99.90
2300;DHT22;1158;48.750;9.078;2022-08-04T03:33:55;15.50;99.90
2300;DHT22;1158;48.750;9.078;2022-08-04T03:36:51;15.50;99.90
2300;DHT22;1158;48.750;9.078;2022-08-04T03:39:35;15.50;99.90
2300;DHT22;1158;48.750;9.078;2022-08-04T03:42:33;15.40;99.90
2300;DHT22;1158;48.750;9.078;2022-08-04T03:45:28;15.40;99.90
2300;DHT22;1158;48.750;9.078;2022-08-04T03:48:12;15.40;99.90
2300;DHT22;1158;48.750;9.078;2022-08-04T03:51:01;15.40;99.90
2300;DHT22;1158;48.750;9.078;2022-08-04T03:54:04;15.30;99.90
2300;DHT22;1158;48.750;9.078;2022-08-04T03:56:50;15.30;99.90
2300;DHT22;1158;48.750;9.078;2022-08-04T03:59:50;15.30;99.90
2300;DHT22;1158;48.750;9.078;2022-08-04T04:02:44;15.30;99.90
2300;DHT22;1158;48.750;9.078;2022-08-04T04:05:45;15.30;99.90
2300;DHT22;1158;48.750;9.078;2022-08-04T04:08:41;15.30;99.90
2300;DHT22;1158;48.750;9.078;2022-08-04T04:11:40;15.30;99.90
2300;DHT22;1158;48.750;9.078;2022-08-04T04:14:33;15.30;99.90
2300;DHT22;1158;48.750;9.078;2022-08-04T04:17:15;15.30;99.90
2300;DHT22;1158;48.750;9.078;2022-08-04T04:20:19;15.30;99.90
2300;DHT22;1158;48.750;9.078;2022-08-04T04:22:59;15.30;99.90
2300;DHT22;1158;48.750;9.078;2022-08-04T04:25:35;15.40;99.90
2300;DHT22;1158;48.750;9.078;2022-08-04T04:31:25;15.40;99.90
2300;DHT22;1158;48.750;9.078;2022-08-04T04:34:07;15.40;99.90
2300;DHT22;1158;48.750;9.078;2022-08-04T04:36:42;15.50;99.90
2300;DHT22;1158;48.750;9.078;2022-08-04T04:39:19;15.60;99.90
2300;DHT22;1158;48.750;9.078;2022-08-04T04:42:01;16.10;99.90
2300;DHT22;1158;48.750;9.078;2022-08-04T04:45:11;16.20;99.90
2300;DHT22;1158;48.750;9.078;2022-08-04T04:47:49;16.10;99.90
2300;DHT22;1158;48.750;9.078;2022-08-04T04:50:29;16.10;99.90
2300;DHT22;1158;48.750;9.078;2022-08-04T04:53:03;16.10;99.90
2300;DHT22;1158;48.750;9.078;2022-08-04T04:55:37;16.10;99.90
2300;DHT22;1158;48.750;9.078;2022-08-04T04:58:11;16.20;99.90
2300;DHT22;1158;48.750;9.078;2022-08-04T05:00:53;16.30;99.90
2300;DHT22;1158;48.750;9.078;2022-08-04T05:03:42;16.40;99.90
2300;DHT22;1158;48.750;9.078;2022-08-04T05:06:34;16.50;99.90
2300;DHT22;1158;48.750;9.078;2022-08-04T05:12:22;16.70;99.90
2300;DHT22;1158;48.750;9.078;2022-08-04T05:14:52;16.90;99.90
2300;DHT22;1158;48.750;9.078;2022-08-04T05:17:24;17.00;99.90
2300;DHT22;1158;48.750;9.078;2022-08-04T05:19:57;17.20;99.90
2300;DHT22;1158;48.750;9.078;2022-08-04T05:22:29;17.70;99.90
2300;DHT22;1158;48.750;9.078;2022-08-04T05:25:02;18.20;99.90
2300;DHT22;1158;48.750;9.078;2022-08-04T05:27:35;18.60;99.90
2300;DHT22;1158;48.750;9.078;2022-08-04T05:30:05;18.90;99.90
2300;DHT22;1158;48.750;9.078;2022-08-04T05:32:40;19.10;99.90
2300;DHT22;1158;48.750;9.078;2022-08-04T05:35:13;19.40;99.90
2300;DHT22;1158;48.750;9.078;2022-08-04T05:37:43;19.60;99.90
2300;DHT22;1158;48.750;9.078;2022-08-04T05:40:14;19.70;99.90
2300;DHT22;1158;48.750;9.078;2022-08-04T05:42:42;19.90;99.90
2300;DHT22;1158;48.750;9.078;2022-08-04T05:45:10;20.00;99.90
2300;DHT22;1158;48.750;9.078;2022-08-04T05:47:38;20.20;99.90
2300;DHT22;1158;48.750;9.078;2022-08-04T05:50:06;20.50;99.90
2300;DHT22;1158;48.750;9.078;2022-08-04T05:52:34;21.50;99.90
2300;DHT22;1158;48.750;9.078;2022-08-04T05:55:04;23.10;99.90
2300;DHT22;1158;48.750;9.078;2022-08-04T05:57:32;24.50;99.90
2300;DHT22;1158;48.750;9.078;2022-08-04T06:00:02;25.50;99.90
2300;DHT22;1158;48.750;9.078;2022-08-04T06:02:30;26.80;99.90
2300;DHT22;1158;48.750;9.078;2022-08-04T06:04:57;27.60;99.90
2300;DHT22;1158;48.750;9.078;2022-08-04T06:07:24;28.50;99.90
2300;DHT22;1158;48.750;9.078;2022-08-04T06:09:51;29.00;99.90
2300;DHT22;1158;48.750;9.078;2022-08-04T06:12:24;29.10;99.90
2300;DHT22;1158;48.750;9.078;2022-08-04T06:14:53;29.60;99.90
2300;DHT22;1158;48.750;9.078;2022-08-04T06:17:23;30.10;99.90
2300;DHT22;1158;48.750;9.078;2022-08-04T06:19:52;30.70;99.90
2300;DHT22;1158;48.750;9.078;2022-08-04T06:22:21;31.20;99.90
2300;DHT22;1158;48.750;9.078;2022-08-04T06:24:49;31.80;99.90
2300;DHT22;1158;48.750;9.078;2022-08-04T06:27:19;32.00;97.40
2300;DHT22;1158;48.750;9.078;2022-08-04T06:29:49;32.40;97.50
2300;DHT22;1158;48.750;9.078;2022-08-04T06:32:16;32.90;95.30
2300;DHT22;1158;48.750;9.078;2022-08-04T06:34:54;33.40;94.60
2300;DHT22;1158;48.750;9.078;2022-08-04T06:37:22;34.00;92.50
2300;DHT22;1158;48.750;9.078;2022-08-04T06:39:50;34.00;91.80
2300;DHT22;1158;48.750;9.078;2022-08-04T06:42:20;35.50;90.30
2300;DHT22;1158;48.750;9.078;2022-08-04T06:44:49;35.40;86.20
2300;DHT22;1158;48.750;9.078;2022-08-04T06:47:17;35.60;84.50
2300;DHT22;1158;48.750;9.078;2022-08-04T06:49:47;36.10;81.30
2300;DHT22;1158;48.750;9.078;2022-08-04T06:52:16;36.10;78.20
2300;DHT22;1158;48.750;9.078;2022-08-04T06:54:43;35.70;78.70
2300;DHT22;1158;48.750;9.078;2022-08-04T06:57:12;36.00;77.50
2300;DHT22;1158;48.750;9.078;2022-08-04T06:59:42;35.80;76.10
2300;DHT22;1158;48.750;9.078;2022-08-04T07:02:13;35.80;77.70
2300;DHT22;1158;48.750;9.078;2022-08-04T07:04:41;35.50;75.70
2300;DHT22;1158;48.750;9.078;2022-08-04T07:07:09;35.70;75.20
2300;DHT22;1158;48.750;9.078;2022-08-04T07:09:37;36.20;75.70
2300;DHT22;1158;48.750;9.078;2022-08-04T07:12:06;36.00;73.90
2300;DHT22;1158;48.750;9.078;2022-08-04T07:14:33;36.10;72.80
2300;DHT22;1158;48.750;9.078;2022-08-04T07:17:03;35.90;72.40
2300;DHT22;1158;48.750;9.078;2022-08-04T07:19:31;35.10;74.10
2300;DHT22;1158;48.750;9.078;2022-08-04T07:21:59;34.40;75.10
2300;DHT22;1158;48.750;9.078;2022-08-04T07:24:29;34.10;76.40
2300;DHT22;1158;48.750;9.078;2022-08-04T07:26:56;33.80;77.50
2300;DHT22;1158;48.750;9.078;2022-08-04T07:29:23;34.60;74.40
2300;DHT22;1158;48.750;9.078;2022-08-04T07:31:50;34.60;74.70
2300;DHT22;1158;48.750;9.078;2022-08-04T07:34:18;34.90;75.90
2300;DHT22;1158;48.750;9.078;2022-08-04T07:36:45;35.10;73.40
2300;DHT22;1158;48.750;9.078;2022-08-04T07:39:12;34.50;74.30
2300;DHT22;1158;48.750;9.078;2022-08-04T07:41:40;34.20;73.60
2300;DHT22;1158;48.750;9.078;2022-08-04T07:44:08;34.60;75.40
2300;DHT22;1158;48.750;9.078;2022-08-04T07:46:36;34.90;73.10
2300;DHT22;1158;48.750;9.078;2022-08-04T07:49:03;34.90;73.30
2300;DHT22;1158;48.750;9.078;2022-08-04T07:51:33;34.80;72.40
2300;DHT22;1158;48.750;9.078;2022-08-04T07:54:01;34.80;72.40
2300;DHT22;1158;48.750;9.078;2022-08-04T07:56:30;34.40;72.00
2300;DHT22;1158;48.750;9.078;2022-08-04T07:58:58;34.90;71.80
2300;DHT22;1158;48.750;9.078;2022-08-04T08:01:25;34.90;71.90
2300;DHT22;1158;48.750;9.078;2022-08-04T08:03:54;36.10;71.30
2300;DHT22;1158;48.750;9.078;2022-08-04T08:06:21;36.30;68.90
2300;DHT22;1158;48.750;9.078;2022-08-04T08:08:50;36.40;67.90
2300;DHT22;1158;48.750;9.078;2022-08-04T08:11:18;36.60;68.20
2300;DHT22;1158;48.750;9.078;2022-08-04T08:13:45;37.00;68.50
2300;DHT22;1158;48.750;9.078;2022-08-04T08:16:12;38.00;65.60
2300;DHT22;1158;48.750;9.078;2022-08-04T08:18:39;38.40;65.90
2300;DHT22;1158;48.750;9.078;2022-08-04T08:21:06;38.90;64.30
2300;DHT22;1158;48.750;9.078;2022-08-04T08:23:34;39.20;64.20
2300;DHT22;1158;48.750;9.078;2022-08-04T08:26:04;39.40;63.50
2300;DHT22;1158;48.750;9.078;2022-08-04T08:28:31;38.90;62.80
2300;DHT22;1158;48.750;9.078;2022-08-04T08:30:58;38.80;63.20
2300;DHT22;1158;48.750;9.078;2022-08-04T08:33:25;38.40;65.00
2300;DHT22;1158;48.750;9.078;2022-08-04T08:35:58;38.70;63.20
2300;DHT22;1158;48.750;9.078;2022-08-04T08:38:38;39.20;62.00
2300;DHT22;1158;48.750;9.078;2022-08-04T08:41:24;39.70;61.30
2300;DHT22;1158;48.750;9.078;2022-08-04T08:44:13;39.30;62.00
2300;DHT22;1158;48.750;9.078;2022-08-04T08:46:59;38.40;62.40
2300;DHT22;1158;48.750;9.078;2022-08-04T08:52:31;38.60;62.40
2300;DHT22;1158;48.750;9.078;2022-08-04T08:55:22;37.90;63.00
2300;DHT22;1158;48.750;9.078;2022-08-04T08:58:06;37.80;64.60
2300;DHT22;1158;48.750;9.078;2022-08-04T09:00:46;37.90;63.50
2300;DHT22;1158;48.750;9.078;2022-08-04T09:03:33;39.00;62.10
2300;DHT22;1158;48.750;9.078;2022-08-04T09:06:20;39.50;62.50
2300;DHT22;1158;48.750;9.078;2022-08-04T09:09:09;40.30;62.00
2300;DHT22;1158;48.750;9.078;2022-08-04T09:11:43;40.60;60.60
2300;DHT22;1158;48.750;9.078;2022-08-04T09:14:19;40.60;63.00
2300;DHT22;1158;48.750;9.078;2022-08-04T09:16:51;40.90;61.20
2300;DHT22;1158;48.750;9.078;2022-08-04T09:19:23;40.80;61.20
2300;DHT22;1158;48.750;9.078;2022-08-04T09:21:58;40.30;60.10
2300;DHT22;1158;48.750;9.078;2022-08-04T09:24:34;40.10;60.30
2300;DHT22;1158;48.750;9.078;2022-08-04T09:27:09;40.30;60.50
2300;DHT22;1158;48.750;9.078;2022-08-04T09:29:46;39.50;58.60
2300;DHT22;1158;48.750;9.078;2022-08-04T09:32:22;39.80;60.10
2300;DHT22;1158;48.750;9.078;2022-08-04T09:35:02;40.00;59.70
2300;DHT22;1158;48.750;9.078;2022-08-04T09:37:37;40.10;60.20
2300;DHT22;1158;48.750;9.078;2022-08-04T09:40:10;40.50;59.00
2300;DHT22;1158;48.750;9.078;2022-08-04T09:42:51;40.70;58.30
2300;DHT22;1158;48.750;9.078;2022-08-04T09:45:26;40.00;57.90
2300;DHT22;1158;48.750;9.078;2022-08-04T09:47:59;39.30;58.50
2300;DHT22;1158;48.750;9.078;2022-08-04T09:50:33;39.20;58.80
2300;DHT22;1158;48.750;9.078;2022-08-04T09:53:09;39.00;58.80
2300;DHT22;1158;48.750;9.078;2022-08-04T09:55:47;39.50;58.60
2300;DHT22;1158;48.750;9.078;2022-08-04T09:58:27;39.90;58.00
2300;DHT22;1158;48.750;9.078;2022-08-04T10:01:00;40.80;58.90
2300;DHT22;1158;48.750;9.078;2022-08-04T10:03:32;41.50;56.30
2300;DHT22;1158;48.750;9.078;2022-08-04T10:06:07;41.50;56.40
2300;DHT22;1158;48.750;9.078;2022-08-04T10:08:50;41.10;55.50
2300;DHT22;1158;48.750;9.078;2022-08-04T10:11:29;40.70;55.10
2300;DHT22;1158;48.750;9.078;2022-08-04T10:14:04;41.20;55.30
2300;DHT22;1158;48.750;9.078;2022-08-04T10:16:45;40.70;55.20
2300;DHT22;1158;48.750;9.078;2022-08-04T10:19:23;40.70;56.00
2300;DHT22;1158;48.750;9.078;2022-08-04T10:22:04;40.40;57.00
2300;DHT22;1158;48.750;9.078;2022-08-04T10:24:47;41.30;55.60
2300;DHT22;1158;48.750;9.078;2022-08-04T10:27:23;41.70;54.20
2300;DHT22;1158;48.750;9.078;2022-08-04T10:29:55;41.30;54.50
2300;DHT22;1158;48.750;9.078;2022-08-04T10:32:28;40.50;55.10
2300;DHT22;1158;48.750;9.078;2022-08-04T10:35:04;40.70;56.20
2300;DHT22;1158;48.750;9.078;2022-08-04T10:37:39;40.90;54.80
2300;DHT22;1158;48.750;9.078;2022-08-04T10:40:13;40.60;54.40
2300;DHT22;1158;48.750;9.078;2022-08-04T10:43:04;40.10;56.40
2300;DHT22;1158;48.750;9.078;2022-08-04T10:45:35;40.70;54.90
2300;DHT22;1158;48.750;9.078;2022-08-04T10:48:14;40.00;54.50
2300;DHT22;1158;48.750;9.078;2022-08-04T10:50:49;39.90;54.50
2300;DHT22;1158;48.750;9.078;2022-08-04T10:53:21;39.90;55.20
2300;DHT22;1158;48.750;9.078;2022-08-04T10:55:55;40.30;56.60
2300;DHT22;1158;48.750;9.078;2022-08-04T10:58:27;40.10;54.60
2300;DHT22;1158;48.750;9.078;2022-08-04T11:00:56;40.10;54.10
2300;DHT22;1158;48.750;9.078;2022-08-04T11:03:39;40.00;54.10
2300;DHT22;1158;48.750;9.078;2022-08-04T11:06:10;39.00;55.60
2300;DHT22;1158;48.750;9.078;2022-08-04T11:08:41;39.10;57.00
2300;DHT22;1158;48.750;9.078;2022-08-04T11:11:12;39.30;55.50
2300;DHT22;1158;48.750;9.078;2022-08-04T11:13:45;39.80;54.40
2300;DHT22;1158;48.750;9.078;2022-08-04T11:16:16;40.10;54.30
2300;DHT22;1158;48.750;9.078;2022-08-04T11:18:56;40.00;54.40
2300;DHT22;1158;48.750;9.078;2022-08-04T11:21:29;39.10;53.10
2300;DHT22;1158;48.750;9.078;2022-08-04T11:24:00;38.20;55.70
2300;DHT22;1158;48.750;9.078;2022-08-04T11:26:34;38.20;56.20
2300;DHT22;1158;48.750;9.078;2022-08-04T11:29:07;38.60;56.40
2300;DHT22;1158;48.750;9.078;2022-08-04T11:31:39;38.30;56.60
2300;DHT22;1158;48.750;9.078;2022-08-04T11:34:16;39.40;56.80
2300;DHT22;1158;48.750;9.078;2022-08-04T11:36:50;40.10;56.20
2300;DHT22;1158;48.750;9.078;2022-08-04T11:39:25;41.10;55.20
2300;DHT22;1158;48.750;9.078;2022-08-04T11:42:13;40.40;54.30
2300;DHT22;1158;48.750;9.078;2022-08-04T11:44:46;39.60;55.90
2300;DHT22;1158;48.750;9.078;2022-08-04T11:47:21;40.60;56.00
2300;DHT22;1158;48.750;9.078;2022-08-04T11:49:57;41.80;54.70
2300;DHT22;1158;48.750;9.078;2022-08-04T11:52:27;41.80;53.90
2300;DHT22;1158;48.750;9.078;2022-08-04T11:54:57;42.10;53.50
2300;DHT22;1158;48.750;9.078;2022-08-04T11:57:25;41.60;53.10
2300;DHT22;1158;48.750;9.078;2022-08-04T11:59:54;41.80;53.30
2300;DHT22;1158;48.750;9.078;2022-08-04T12:02:36;40.20;54.50
2300;DHT22;1158;48.750;9.078;2022-08-04T12:05:09;39.80;54.60
2300;DHT22;1158;48.750;9.078;2022-08-04T12:07:47;38.40;55.60
2300;DHT22;1158;48.750;9.078;2022-08-04T12:10:23;38.70;56.90
2300;DHT22;1158;48.750;9.078;2022-08-04T12:13:01;38.50;55.50
2300;DHT22;1158;48.750;9.078;2022-08-04T12:15:32;38.20;56.80
2300;DHT22;1158;48.750;9.078;2022-08-04T12:18:09;37.90;57.70
2300;DHT22;1158;48.750;9.078;2022-08-04T12:20:46;38.50;55.60
2300;DHT22;1158;48.750;9.078;2022-08-04T12:23:18;39.40;54.90
2300;DHT22;1158;48.750;9.078;2022-08-04T12:25:51;40.60;54.50
2300;DHT22;1158;48.750;9.078;2022-08-04T12:28:25;41.10;53.20
2300;DHT22;1158;48.750;9.078;2022-08-04T12:30:59;41.30;52.60
2300;DHT22;1158;48.750;9.078;2022-08-04T12:33:33;42.30;52.10
2300;DHT22;1158;48.750;9.078;2022-08-04T12:36:12;42.40;51.00
2300;DHT22;1158;48.750;9.078;2022-08-04T12:38:51;42.80;49.80
2300;DHT22;1158;48.750;9.078;2022-08-04T12:41:24;42.80;51.70
2300;DHT22;1158;48.750;9.078;2022-08-04T12:43:53;42.30;51.40
2300;DHT22;1158;48.750;9.078;2022-08-04T12:46:23;41.70;50.40
2300;DHT22;1158;48.750;9.078;2022-08-04T12:48:50;41.90;51.70
2300;DHT22;1158;48.750;9.078;2022-08-04T12:51:20;41.60;51.50
2300;DHT22;1158;48.750;9.078;2022-08-04T12:53:47;42.50;50.50
2300;DHT22;1158;48.750;9.078;2022-08-04T12:56:24;42.50;50.30
2300;DHT22;1158;48.750;9.078;2022-08-04T12:58:53;41.00;50.90
2300;DHT22;1158;48.750;9.078;2022-08-04T13:01:26;39.90;52.90
2300;DHT22;1158;48.750;9.078;2022-08-04T13:03:56;40.30;53.40
2300;DHT22;1158;48.750;9.078;2022-08-04T13:06:27;40.90;52.40
2300;DHT22;1158;48.750;9.078;2022-08-04T13:09:00;42.10;51.00
2300;DHT22;1158;48.750;9.078;2022-08-04T13:11:28;42.50;49.80
2300;DHT22;1158;48.750;9.078;2022-08-04T13:13:59;42.80;50.10
2300;DHT22;1158;48.750;9.078;2022-08-04T13:16:30;42.70;49.90
2300;DHT22;1158;48.750;9.078;2022-08-04T13:18:58;43.00;49.40
2300;DHT22;1158;48.750;9.078;2022-08-04T13:21:28;41.60;49.40
2300;DHT22;1158;48.750;9.078;2022-08-04T13:24:00;42.70;49.20
2300;DHT22;1158;48.750;9.078;2022-08-04T13:26:28;43.90;48.70
2300;DHT22;1158;48.750;9.078;2022-08-04T13:29:00;43.70;48.50
2300;DHT22;1158;48.750;9.078;2022-08-04T13:31:28;43.00;49.40
2300;DHT22;1158;48.750;9.078;2022-08-04T13:34:02;42.20;49.00
2300;DHT22;1158;48.750;9.078;2022-08-04T13:36:33;41.90;50.80
2300;DHT22;1158;48.750;9.078;2022-08-04T13:39:05;41.80;49.50
2300;DHT22;1158;48.750;9.078;2022-08-04T13:41:33;42.50;49.90
2300;DHT22;1158;48.750;9.078;2022-08-04T13:44:02;44.30;49.20
2300;DHT22;1158;48.750;9.078;2022-08-04T13:46:37;45.00;48.20
2300;DHT22;1158;48.750;9.078;2022-08-04T13:49:10;44.90;47.10
2300;DHT22;1158;48.750;9.078;2022-08-04T13:51:40;45.50;47.60
2300;DHT22;1158;48.750;9.078;2022-08-04T13:54:07;44.00;47.70
2300;DHT22;1158;48.750;9.078;2022-08-04T13:56:38;44.10;48.50
2300;DHT22;1158;48.750;9.078;2022-08-04T13:59:09;44.80;47.90
2300;DHT22;1158;48.750;9.078;2022-08-04T14:01:41;44.20;47.80
2300;DHT22;1158;48.750;9.078;2022-08-04T14:04:12;43.10;47.80
2300;DHT22;1158;48.750;9.078;2022-08-04T14:06:48;43.00;48.90
2300;DHT22;1158;48.750;9.078;2022-08-04T14:09:17;43.40;48.20
2300;DHT22;1158;48.750;9.078;2022-08-04T14:11:48;43.70;48.70
2300;DHT22;1158;48.750;9.078;2022-08-04T14:14:16;44.80;46.80
2300;DHT22;1158;48.750;9.078;2022-08-04T14:16:58;44.70;46.90
2300;DHT22;1158;48.750;9.078;2022-08-04T14:19:26;45.10;45.70
2300;DHT22;1158;48.750;9.078;2022-08-04T14:21:54;45.60;46.80
2300;DHT22;1158;48.750;9.078;2022-08-04T14:24:22;44.80;47.00
2300;DHT22;1158;48.750;9.078;2022-08-04T14:26:50;45.30;46.00
2300;DHT22;1158;48.750;9.078;2022-08-04T14:29:18;44.80;45.40
2300;DHT22;1158;48.750;9.078;2022-08-04T14:31:47;44.20;46.50
2300;DHT22;1158;48.750;9.078;2022-08-04T14:34:24;44.10;47.30
2300;DHT22;1158;48.750;9.078;2022-08-04T14:36:53;43.10;47.40
2300;DHT22;1158;48.750;9.078;2022-08-04T14:39:35;42.00;48.50
2300;DHT22;1158;48.750;9.078;2022-08-04T14:42:04;41.30;49.60
2300;DHT22;1158;48.750;9.078;2022-08-04T14:44:31;40.20;50.70
2300;DHT22;1158;48.750;9.078;2022-08-04T14:46:58;39.70;50.80
2300;DHT22;1158;48.750;9.078;2022-08-04T14:49:26;39.00;52.00
2300;DHT22;1158;48.750;9.078;2022-08-04T14:51:56;38.90;52.90
2300;DHT22;1158;48.750;9.078;2022-08-04T14:54:28;38.20;52.60
2300;DHT22;1158;48.750;9.078;2022-08-04T14:56:59;37.70;54.30
2300;DHT22;1158;48.750;9.078;2022-08-04T14:59:26;37.50;54.20
2300;DHT22;1158;48.750;9.078;2022-08-04T15:01:54;37.20;54.10
2300;DHT22;1158;48.750;9.078;2022-08-04T15:04:23;36.90;54.40
2300;DHT22;1158;48.750;9.078;2022-08-04T15:06:51;36.90;54.90
2300;DHT22;1158;48.750;9.078;2022-08-04T15:09:20;37.90;54.30
2300;DHT22;1158;48.750;9.078;2022-08-04T15:11:47;39.60;54.30
2300;DHT22;1158;48.750;9.078;2022-08-04T15:14:14;41.00;51.70
2300;DHT22;1158;48.750;9.078;2022-08-04T15:16:41;41.80;49.90
2300;DHT22;1158;48.750;9.078;2022-08-04T15:19:09;42.10;49.20
2300;DHT22;1158;48.750;9.078;2022-08-04T15:21:35;42.50;49.40
2300;DHT22;1158;48.750;9.078;2022-08-04T15:24:03;42.70;48.00
2300;DHT22;1158;48.750;9.078;2022-08-04T15:26:34;42.90;48.80
2300;DHT22;1158;48.750;9.078;2022-08-04T15:29:07;42.40;48.40
2300;DHT22;1158;48.750;9.078;2022-08-04T15:31:39;41.70;48.60
2300;DHT22;1158;48.750;9.078;2022-08-04T15:34:06;41.80;48.20
2300;DHT22;1158;48.750;9.078;2022-08-04T15:36:47;41.90;48.30
2300;DHT22;1158;48.750;9.078;2022-08-04T15:39:26;41.50;49.20
2300;DHT22;1158;48.750;9.078;2022-08-04T15:42:09;42.60;48.20
2300;DHT22;1158;48.750;9.078;2022-08-04T15:45:11;43.30;48.50
2300;DHT22;1158;48.750;9.078;2022-08-04T15:47:40;43.20;47.90
2300;DHT22;1158;48.750;9.078;2022-08-04T15:50:09;42.50;48.50
2300;DHT22;1158;48.750;9.078;2022-08-04T15:53:01;43.10;48.50
2300;DHT22;1158;48.750;9.078;2022-08-04T15:55:33;43.30;47.80
2300;DHT22;1158;48.750;9.078;2022-08-04T15:58:03;43.70;47.50
2300;DHT22;1158;48.750;9.078;2022-08-04T16:03:40;43.80;46.90
2300;DHT22;1158;48.750;9.078;2022-08-04T16:06:39;43.80;46.60
2300;DHT22;1158;48.750;9.078;2022-08-04T16:09:06;43.70;47.00
2300;DHT22;1158;48.750;9.078;2022-08-04T16:11:36;43.60;46.00
2300;DHT22;1158;48.750;9.078;2022-08-04T16:14:10;41.50;47.00
2300;DHT22;1158;48.750;9.078;2022-08-04T16:16:47;40.60;48.40
2300;DHT22;1158;48.750;9.078;2022-08-04T16:19:22;39.60;49.40
2300;DHT22;1158;48.750;9.078;2022-08-04T16:21:52;38.80;50.60
2300;DHT22;1158;48.750;9.078;2022-08-04T16:24:21;38.20;51.20
2300;DHT22;1158;48.750;9.078;2022-08-04T16:26:50;37.40;52.30
2300;DHT22;1158;48.750;9.078;2022-08-04T16:29:36;37.10;52.50
2300;DHT22;1158;48.750;9.078;2022-08-04T16:32:21;36.60;52.40
2300;DHT22;1158;48.750;9.078;2022-08-04T16:34:53;36.50;53.70
2300;DHT22;1158;48.750;9.078;2022-08-04T16:37:23;36.40;53.30
2300;DHT22;1158;48.750;9.078;2022-08-04T16:40:27;36.30;54.00
2300;DHT22;1158;48.750;9.078;2022-08-04T16:42:57;36.30;54.30
2300;DHT22;1158;48.750;9.078;2022-08-04T16:45:45;35.90;53.80
2300;DHT22;1158;48.750;9.078;2022-08-04T16:48:13;35.70;53.70
2300;DHT22;1158;48.750;9.078;2022-08-04T16:50:49;35.40;54.20
2300;DHT22;1158;48.750;9.078;2022-08-04T16:53:17;35.20;56.00
2300;DHT22;1158;48.750;9.078;2022-08-04T16:55:47;35.10;55.20
2300;DHT22;1158;48.750;9.078;2022-08-04T16:58:16;35.10;55.10
2300;DHT22;1158;48.750;9.078;2022-08-04T17:00:43;35.10;55.70
2300;DHT22;1158;48.750;9.078;2022-08-04T17:03:10;35.00;54.90
2300;DHT22;1158;48.750;9.078;2022-08-04T17:05:38;35.00;55.80
2300;DHT22;1158;48.750;9.078;2022-08-04T17:08:05;34.90;56.20
2300;DHT22;1158;48.750;9.078;2022-08-04T17:10:35;34.80;56.80
2300;DHT22;1158;48.750;9.078;2022-08-04T17:13:22;34.80;57.90
2300;DHT22;1158;48.750;9.078;2022-08-04T17:15:51;34.60;57.60